• Join FlightAware (Why Join?)
  • Login
  • US Flag 
01:37AM EDT


 

Airport Tracker/Info


-or-


 

Live Flight TrackerFlight Track Log ✈ DAL3796 ✈ 23-Aug-2013 ✈ KJAX - KCVG

Flight Track Log - Related Links

Times and Time Zones

All times are in EDT time to prevent confusion due to time zone crossing. See the DAL3796 flight status page for this flight to view local times or setup timezone preferences in your user account.

Time Position Orientation Groundspeed Altitude Reporting Facility
EDT Latitude Longitude Course Direction KTS MPH feet Rate Location/Type
02:00PM 30.5211 -81.6217 70° East 177 204 1,900  Level Jacksonville Center
02:01PM 30.5817 -81.6136 North 226 260 3,800 1,800 Climbing Jacksonville Center
02:02PM 30.6544 -81.5983 10° North 280 322 5,500 1,920 Climbing Jacksonville Center
02:03PM 30.7294 -81.5778 13° North 280 322 7,700 2,100 Climbing Jacksonville Center
02:04PM 30.8128 -81.5597 11° North 280 322 9,800 1,740 Climbing Jacksonville Center
02:05PM 31.0430 -82.1035 324° Northwest  Level FlightAware Approximate
02:05PM 30.8961 -81.5369 13° North 291 335 11,200  Level Jacksonville Center
02:06PM 30.9939 -81.5161 10° North 319 367 12,200 1,020 Climbing Jacksonville Center
02:07PM 31.0875 -81.4711 22° Northeast 342 394 13,300 1,200 Climbing Jacksonville Center
02:08PM 31.1767 -81.4114 30° Northeast 352 405 14,700 1,200 Climbing Jacksonville Center
02:09PM 31.2689 -81.4392 346° North 352 405 15,700 960 Climbing Jacksonville Center
02:10PM 31.3119 -81.5550 294° West 338 389 16,700 960 Climbing Jacksonville Center
02:11PM 31.3381 -81.6739 284° West 372 428 17,700 960 Climbing Jacksonville Center
02:12PM 31.3664 -81.7903 286° West 375 432 18,700 900 Climbing Jacksonville Center
02:13PM 31.3944 -81.9092 285° West 375 432 19,600 900 Climbing Jacksonville Center
02:14PM 31.4203 -82.0211 285° West 383 441 20,500 780 Climbing Jacksonville Center
02:15PM 31.4461 -82.1400 284° West 389 448 21,200 660 Climbing Jacksonville Center
02:16PM 31.4781 -82.2592 287° West 389 448 21,900 600 Climbing Jacksonville Center
02:17PM 31.5078 -82.3931 285° West 389 448 22,500 540 Climbing Jacksonville Center
02:18PM 31.5564 -82.5075 297° West 394 453 23,000 540 Climbing Jacksonville Center
02:19PM 31.6628 -82.5483 342° North 365 420 23,600 540 Climbing Jacksonville Center
02:20PM 31.7758 -82.5872 344° North 379 436 24,100 600 Climbing Jacksonville Center
02:22PM 32.0208 -82.6719 344° North 421 484 25,700 720 Climbing Atlanta Center
02:23PM 32.1275 -82.7072 344° North 410 472 26,500 660 Climbing Atlanta Center
02:24PM 32.2364 -82.7422 345° North 410 472 27,100 600 Climbing Atlanta Center
02:25PM 32.3475 -82.7775 345° North 405 466 27,700 600 Climbing Atlanta Center
02:26PM 32.4564 -82.8153 344° North 405 466 28,300 600 Climbing Atlanta Center
02:27PM 32.5506 -82.8461 345° North 395 455 28,900 600 Climbing Atlanta Center
02:28PM 32.6575 -82.8817 344° North 395 455 29,500 540 Climbing Atlanta Center
02:29PM 32.7642 -82.9197 343° North 395 455 30,000 240 Climbing Atlanta Center
02:30PM 32.8731 -82.9556 345° North 400 460 30,000  Level Atlanta Center
02:31PM 32.9861 -82.9964 343° North 405 466 30,000  Level Atlanta Center
02:32PM 33.0992 -83.0344 344° North 405 466 30,000  Level Atlanta Center
02:33PM 33.2164 -83.0756 344° North 412 474 30,000  Level Atlanta Center
02:34PM 33.3336 -83.1139 345° North 425 489 30,000  Level Atlanta Center
02:35PM 33.4508 -83.1550 344° North 430 495 30,000  Level Atlanta Center
02:36PM 33.5658 -83.1961 343° North 430 495 30,000  Level Atlanta Center
02:37PM 33.6853 -83.2350 345° North 436 502 30,000  Level Atlanta Center
02:38PM 33.8022 -83.2764 344° North 436 502 30,000  Level Atlanta Center
02:39PM 33.9172 -83.3178 343° North 436 502 30,000  Level Atlanta Center
02:40PM 34.0364 -83.3519 347° North 436 502 30,000  Level Atlanta Center
02:41PM 34.1556 -83.3861 347° North 436 502 30,000  Level Atlanta Center
02:42PM 34.2728 -83.4203 346° North 431 496 30,000  Level Atlanta Center
02:43PM 34.3878 -83.4547 346° North 431 496 30,000  Level Atlanta Center
02:44PM 34.5047 -83.4892 346° North 431 496 30,000  Level Atlanta Center
02:45PM 34.6217 -83.5239 346° North 431 496 30,000  Level Atlanta Center
02:46PM 34.7472 -83.5611 346° North 431 496 30,000  Level Atlanta Center
02:47PM 34.8661 -83.5933 347° North 424 488 30,000  Level Atlanta Center
02:48PM 34.9831 -83.6256 347° North 424 488 30,000  Level Atlanta Center
02:49PM 35.1022 -83.6528 349° North 424 488 30,000  Level Atlanta Center
02:50PM 35.2253 -83.6625 356° North 429 494 30,000  Level Atlanta Center
02:51PM 35.3464 -83.6747 355° North 435 501 30,000  Level Atlanta Center
02:52PM 35.4675 -83.6869 355° North 435 501 30,000  Level Atlanta Center
02:53PM 35.5883 -83.6967 356° North 435 501 30,000  Level Atlanta Center
02:54PM 35.7094 -83.7089 355° North 435 501 30,000  Level Atlanta Center
02:55PM 35.8306 -83.7058 North 435 501 30,000  Level Atlanta Center
02:56PM 35.9514 -83.6744 12° North 435 501 30,000  Level Atlanta Center
02:57PM 36.0722 -83.6456 11° North 440 506 30,000  Level Atlanta Center
02:58PM 36.2367 -83.6094 10° North 437 503 30,000  Level Indianapolis Center
03:00PM 36.3558 -83.5931 North 434 499 30,000  Level Indianapolis Center
03:01PM 36.4675 -83.6247 347° North 417 480 30,000  Level Indianapolis Center
03:02PM 36.6050 -83.6217 North 429 494 30,000  Level Indianapolis Center
03:03PM 36.7256 -83.6186 North 431 496 30,000  Level Indianapolis Center
03:04PM 36.8461 -83.6147 North 430 495 30,000  Level Indianapolis Center
03:05PM 36.9664 -83.6114 North 429 494 30,000  Level Indianapolis Center
03:06PM 37.0875 -83.6083 North 431 496 30,000  Level Indianapolis Center
03:07PM 37.2283 -83.6028 North 431 496 30,000 -300 Level Indianapolis Center
03:08PM 37.3508 -83.5972 North 435 501 29,500 -1,440 Descending Indianapolis Center
03:09PM 37.4742 -83.5928 North 440 506 27,100 -2,280 Descending Indianapolis Center
03:10PM 37.5900 -83.5906 North 419 482 24,900 -2,160 Descending Indianapolis Center
03:11PM 37.6925 -83.6269 344° North 397 457 22,700 -2,040 Descending Indianapolis Center
03:12PM 37.7856 -83.6914 331° Northwest 383 441 20,700 -1,320 Descending Indianapolis Center
03:13PM 37.8908 -83.7653 331° Northwest 372 428 20,000 -1,020 Descending Indianapolis Center
03:14PM 37.9811 -83.8292 331° Northwest 369 425 18,600 -1,320 Descending Indianapolis Center
03:15PM 38.0675 -83.8911 331° Northwest 358 412 17,300 -1,380 Descending Indianapolis Center
03:16PM 38.1525 -83.9506 331° Northwest 351 404 15,800 -1,500 Descending Indianapolis Center
03:17PM 38.2358 -84.0114 330° Northwest 346 398 14,300 -1,620 Descending Indianapolis Center
03:18PM 38.3325 -84.0792 331° Northwest 339 390 12,500 -1,500 Descending Indianapolis Center
03:19PM 38.4133 -84.1336 332° Northwest 330 380 11,300 -780 Descending Indianapolis Center
03:20PM 38.5044 -84.1492 352° North 333 383 11,000 -600 Descending Indianapolis Center
03:21PM 38.5892 -84.1619 353° North 306 352 10,100 -1,200 Descending Indianapolis Center
03:22PM 38.6208 -84.2475 295° West 287 330 8,600 -1,020 Descending Indianapolis Center
03:23PM 38.6331 -84.3461 279° West 281 323 8,000 -660 Descending Indianapolis Center
03:24PM 38.6469 -84.4639 279° West 288 331 7,300 -960 Descending Indianapolis Center
03:25PM 38.6592 -84.5572 280° West 274 315 6,100 -660 Descending Indianapolis Center
03:26PM 38.6911 -84.6283 300° West 238 274 6,000 -540 Descending Indianapolis Center
03:27PM 38.7417 -84.6711 327° Northwest 237 273 5,000 -540 Descending Indianapolis Center
03:28PM 38.8011 -84.6722 359° North 229 264 4,900 -840 Descending Indianapolis Center
03:30PM 38.9000 -84.6667 North 219 252 3,100 -1,020 Descending Cincinnati TRACON
03:31PM 38.9500 -84.6667 360° North 192 221 2,500 -720 Descending Cincinnati TRACON
03:32PM 39.0000 -84.6667 360° North 144 166 1,600 -900 Descending Cincinnati TRACON
03:34PM 39.0488 -84.6678 North  Level Estimated
03:41PM 39.0488 -84.6678 180° South  Level Estimated